Terminal Aerodrome Forecast
Issued by NWS Charleston, WV

Current Version | Previous Version | Graphics & Text | Print | Product List | Glossary On
Versions: 1 2 3 4 5 6 7 8 9 10 11 12 13 14 15 16 17 18 19 20 21 22 23
000
FTUS41 KRLX 221700
TAFEKN
TAF
KEKN 221720Z 2218/2318 27011G17KT 5SM BR VCTS OVC030CB
     FM221900 28011G17KT 6SM BR OVC035
     FM222300 32011G17KT P6SM BKN035
     FM230000 32011G17KT P6SM BKN030
     FM231000 30012G18KT P6SM BKN035
     FM231500 31013G20KT P6SM SCT060=

USA.gov is the U.S. government's official web portal to all federal, state and local government web resources and services.